createdAt,value
2019-01-12T00:01:24.702Z,1.47
2019-01-12T00:03:53.798Z,1.43
2019-01-12T00:06:22.938Z,1.17
2019-01-12T00:08:52.198Z,1.20
2019-01-12T00:11:21.333Z,1.70
2019-01-12T00:13:50.401Z,1.03
2019-01-12T00:16:19.679Z,1.20
2019-01-12T00:18:48.775Z,1.17
2019-01-12T00:21:17.835Z,1.13
2019-01-12T00:23:47.164Z,1.10
2019-01-12T00:26:16.283Z,0.90
2019-01-12T00:28:45.279Z,0.97
2019-01-12T00:31:15.067Z,1.17
2019-01-12T00:33:44.075Z,1.40
2019-01-12T00:36:13.175Z,1.13
2019-01-12T00:38:42.289Z,0.97
2019-01-12T00:41:11.415Z,1.23
2019-01-12T00:43:43.205Z,1.50
2019-01-12T00:46:12.502Z,1.10
2019-01-12T00:48:41.555Z,1.13
2019-01-12T00:51:10.632Z,1.30
2019-01-12T00:53:39.895Z,1.37
2019-01-12T00:56:08.975Z,1.50
2019-01-12T00:58:38.034Z,2.10
2019-01-12T01:01:07.511Z,1.83
2019-01-12T01:03:36.594Z,2.37
2019-01-12T01:06:05.659Z,2.83
2019-01-12T01:08:34.978Z,3.00
2019-01-12T01:11:04.032Z,3.33
2019-01-12T01:13:33.206Z,4.03
2019-01-12T01:16:02.461Z,3.43
2019-01-12T01:18:31.653Z,3.87
2019-01-12T01:21:00.641Z,4.77
2019-01-12T01:23:30.779Z,3.93
2019-01-12T01:25:59.820Z,5.47
2019-01-12T01:28:30.062Z,6.03
2019-01-12T01:30:59.286Z,5.50
2019-01-12T01:33:28.346Z,5.70
2019-01-12T01:35:57.516Z,6.57
2019-01-12T01:38:26.790Z,7.00
2019-01-12T01:40:55.918Z,8.00
2019-01-12T01:43:27.366Z,7.80
2019-01-12T01:45:56.770Z,7.77
2019-01-12T01:48:27.287Z,8.10
2019-01-12T01:50:56.378Z,8.13
2019-01-12T01:53:26.826Z,8.40
2019-01-12T01:55:55.914Z,8.57
2019-01-12T01:58:25.013Z,8.83
2019-01-12T02:00:54.476Z,9.03
2019-01-12T02:03:23.530Z,8.80
2019-01-12T02:05:52.642Z,8.00
2019-01-12T02:08:21.954Z,8.47
2019-01-12T02:10:51.030Z,7.90
2019-01-12T02:13:20.128Z,8.40
2019-01-12T02:15:49.450Z,9.20
2019-01-12T02:18:19.075Z,8.67
2019-01-12T02:20:48.132Z,8.73
2019-01-12T02:23:17.692Z,7.73
2019-01-12T02:25:46.756Z,7.87
2019-01-12T02:28:15.890Z,8.77
2019-01-12T02:30:45.254Z,9.33
2019-01-12T02:33:14.345Z,9.47
2019-01-12T02:35:43.417Z,8.43
2019-01-12T02:38:12.747Z,9.10
2019-01-12T02:40:41.731Z,9.27
2019-01-12T02:43:10.883Z,9.57
2019-01-12T02:45:40.241Z,10.40
2019-01-12T02:48:09.316Z,9.20
2019-01-12T02:50:39.630Z,9.00
2019-01-12T02:53:08.963Z,9.97
2019-01-12T02:55:38.043Z,8.03
2019-01-12T02:58:07.094Z,7.67
2019-01-12T03:01:04.601Z,7.80
2019-01-12T03:03:33.673Z,7.17
2019-01-12T03:06:02.754Z,6.47
2019-01-12T03:08:32.112Z,6.87
2019-01-12T03:11:01.177Z,5.97
2019-01-12T03:13:30.244Z,6.13
2019-01-12T03:15:59.596Z,6.17
2019-01-12T03:18:28.670Z,5.30
2019-01-12T03:20:57.836Z,5.50
2019-01-12T03:23:27.334Z,5.60
2019-01-12T03:25:56.431Z,5.50
2019-01-12T03:28:25.909Z,4.67
2019-01-12T03:30:55.249Z,4.73
2019-01-12T03:33:24.397Z,5.03
2019-01-12T03:35:53.476Z,4.67
2019-01-12T03:38:22.679Z,4.30
2019-01-12T03:40:51.732Z,4.97
2019-01-12T03:43:20.804Z,4.70
2019-01-12T03:45:51.056Z,4.90
2019-01-12T03:48:20.115Z,4.67
2019-01-12T03:50:49.165Z,4.53
2019-01-12T03:53:18.472Z,4.17
2019-01-12T03:55:47.543Z,4.23
2019-01-12T03:58:16.629Z,4.50
2019-01-12T04:00:45.975Z,3.83
2019-01-12T04:03:15.134Z,3.67
2019-01-12T04:05:44.200Z,2.95
2019-01-12T04:08:13.195Z,3.07
2019-01-12T04:10:42.286Z,2.67
2019-01-12T04:13:11.370Z,2.40
2019-01-12T04:15:40.736Z,2.37
2019-01-12T04:18:09.882Z,2.37
2019-01-12T04:20:38.964Z,2.20
2019-01-12T04:23:08.228Z,2.00
2019-01-12T04:25:37.375Z,2.30
2019-01-12T04:28:06.437Z,2.20
2019-01-12T04:30:35.714Z,2.23
2019-01-12T04:33:04.790Z,2.50
2019-01-12T04:35:34.885Z,2.60
2019-01-12T04:38:04.248Z,2.70
2019-01-12T04:40:33.251Z,2.37
2019-01-12T04:43:02.325Z,3.00
2019-01-12T04:45:31.618Z,2.55
2019-01-12T04:48:00.882Z,3.13
2019-01-12T04:50:29.932Z,2.50
2019-01-12T04:52:59.089Z,2.87
2019-01-12T04:55:28.141Z,3.07
2019-01-12T04:57:57.248Z,2.87
2019-01-12T05:00:26.916Z,3.10
2019-01-12T05:02:56.858Z,2.90
2019-01-12T05:05:25.923Z,3.43
2019-01-12T05:07:55.095Z,2.93
2019-01-12T05:10:24.158Z,2.90
2019-01-12T05:12:53.238Z,3.20
2019-01-12T05:15:22.501Z,3.20
2019-01-12T05:17:51.594Z,3.10
2019-01-12T05:20:21.520Z,3.10
2019-01-12T05:22:50.757Z,2.90
2019-01-12T05:25:20.239Z,3.30
2019-01-12T05:27:49.542Z,3.57
2019-01-12T05:30:23.223Z,3.40
2019-01-12T05:32:52.407Z,2.93
2019-01-12T05:35:21.479Z,3.47
2019-01-12T05:37:50.721Z,3.63
2019-01-12T05:40:20.004Z,3.90
2019-01-12T05:42:49.167Z,4.17
2019-01-12T05:45:18.634Z,3.73
2019-01-12T05:47:48.057Z,4.00
2019-01-12T05:50:17.233Z,3.87
2019-01-12T05:52:48.100Z,4.27
2019-01-12T05:55:17.210Z,3.33
2019-01-12T05:57:46.273Z,3.47
2019-01-12T06:00:20.871Z,4.03
2019-01-12T06:02:50.005Z,3.90
2019-01-12T06:05:19.060Z,3.57
2019-01-12T06:07:48.420Z,3.73
2019-01-12T06:10:17.636Z,3.67
2019-01-12T06:12:46.886Z,4.03
2019-01-12T06:15:16.657Z,4.20
2019-01-12T06:17:45.732Z,3.83
2019-01-12T06:20:15.550Z,3.90
2019-01-12T06:22:44.922Z,4.53
2019-01-12T06:25:13.997Z,4.20
2019-01-12T06:27:43.180Z,4.30
2019-01-12T06:30:15.442Z,3.93
2019-01-12T06:32:44.519Z,3.57
2019-01-12T06:35:13.918Z,3.90
2019-01-12T06:37:43.236Z,4.33
2019-01-12T06:40:14.430Z,4.50
2019-01-12T06:42:43.557Z,5.07
2019-01-12T06:45:13.395Z,4.30
2019-01-12T06:47:42.488Z,4.37
2019-01-12T06:50:12.648Z,4.50
2019-01-12T06:52:41.790Z,5.17
2019-01-12T06:55:10.899Z,4.60
2019-01-12T06:57:40.027Z,5.07
2019-01-12T07:00:12.452Z,5.40
2019-01-12T07:02:41.579Z,4.80
2019-01-12T07:05:10.951Z,5.03
2019-01-12T07:07:40.253Z,5.00
2019-01-12T07:10:10.381Z,5.00
2019-01-12T07:12:39.453Z,4.73
2019-01-12T07:15:10.783Z,5.80
2019-01-12T07:17:39.947Z,5.53
2019-01-12T07:20:14.341Z,5.57
2019-01-12T07:22:43.550Z,5.63
2019-01-12T07:25:12.905Z,5.43
2019-01-12T07:27:42.095Z,5.40
2019-01-12T07:30:29.325Z,5.17
2019-01-12T07:32:58.749Z,5.93
2019-01-12T07:35:27.833Z,6.73
2019-01-12T07:37:57.039Z,5.87
2019-01-12T07:40:26.333Z,5.37
2019-01-12T07:42:55.523Z,5.67
2019-01-12T07:45:24.649Z,5.37
2019-01-12T07:47:53.775Z,5.77
2019-01-12T07:50:22.870Z,5.47
2019-01-12T07:52:51.870Z,6.03
2019-01-12T07:55:21.134Z,5.47
2019-01-12T07:57:50.232Z,5.60
2019-01-12T08:00:23.544Z,5.37
2019-01-12T08:02:52.531Z,5.17
2019-01-12T08:05:22.580Z,4.67
2019-01-12T08:07:51.699Z,4.60
2019-01-12T08:10:23.423Z,5.27
2019-01-12T08:12:52.492Z,4.90
2019-01-12T08:15:21.563Z,3.93
2019-01-12T08:17:50.969Z,4.13
2019-01-12T08:20:27.066Z,4.20
2019-01-12T08:22:56.138Z,4.53
2019-01-12T08:25:25.264Z,3.50
2019-01-12T08:27:54.654Z,3.10
2019-01-12T08:30:23.796Z,2.90
2019-01-12T08:32:53.174Z,3.07
2019-01-12T08:35:22.438Z,2.67
2019-01-12T08:37:51.644Z,2.50
2019-01-12T08:40:20.762Z,2.20
2019-01-12T08:42:50.010Z,1.90
2019-01-12T08:45:20.377Z,1.80
2019-01-12T08:47:49.445Z,1.90
2019-01-12T08:50:19.967Z,1.70
2019-01-12T08:52:49.367Z,1.97
2019-01-12T08:55:18.502Z,1.83
2019-01-12T08:57:47.862Z,1.90
2019-01-12T09:00:24.251Z,1.80
2019-01-12T09:02:53.973Z,1.90
2019-01-12T09:05:23.052Z,2.40
2019-01-12T09:07:52.154Z,2.03
2019-01-12T09:10:23.205Z,1.97
2019-01-12T09:12:52.306Z,2.07
2019-01-12T09:15:22.257Z,1.90
2019-01-12T09:17:51.552Z,2.20
2019-01-12T09:20:20.652Z,2.60
2019-01-12T09:22:49.744Z,2.10
2019-01-12T09:25:19.444Z,2.27
2019-01-12T09:27:48.549Z,2.80
2019-01-12T09:30:19.635Z,2.70
2019-01-12T09:32:49.887Z,2.60
2019-01-12T09:35:19.086Z,2.90
2019-01-12T09:37:48.267Z,3.00
2019-01-12T09:40:19.104Z,2.77
2019-01-12T09:42:48.210Z,3.20
2019-01-12T09:45:17.626Z,2.87
2019-01-12T09:47:46.827Z,3.47
2019-01-12T09:50:17.389Z,2.80
2019-01-12T09:52:46.532Z,2.97
2019-01-12T09:55:15.930Z,2.50
2019-01-12T09:57:45.015Z,2.40
2019-01-12T10:00:22.937Z,3.27
2019-01-12T10:02:51.996Z,3.13
2019-01-12T10:05:21.339Z,2.60
2019-01-12T10:07:50.599Z,2.43
2019-01-12T10:10:20.124Z,2.60
2019-01-12T10:12:49.484Z,2.77
2019-01-12T10:15:18.759Z,2.47
2019-01-12T10:17:47.886Z,3.03
2019-01-12T10:20:19.174Z,2.20
2019-01-12T10:22:48.438Z,2.53
2019-01-12T10:25:18.162Z,2.30
2019-01-12T10:27:47.312Z,2.50
2019-01-12T10:30:19.170Z,2.23
2019-01-12T10:32:48.155Z,2.53
2019-01-12T10:35:17.200Z,2.03
2019-01-12T10:37:46.485Z,2.60
2019-01-12T10:40:15.930Z,2.27
2019-01-12T10:42:45.101Z,2.17
2019-01-12T10:45:15.130Z,2.37
2019-01-12T10:47:45.454Z,2.73
2019-01-12T10:50:17.683Z,2.67
2019-01-12T10:52:46.853Z,2.27
2019-01-12T10:55:15.950Z,2.20
2019-01-12T10:57:45.218Z,2.53
2019-01-12T11:00:23.053Z,2.60
2019-01-12T11:02:52.267Z,2.50
2019-01-12T11:05:21.392Z,2.70
2019-01-12T11:07:50.515Z,2.33
2019-01-12T11:10:20.111Z,2.87
2019-01-12T11:12:49.295Z,3.10
2019-01-12T11:15:19.582Z,2.53
2019-01-12T11:17:48.898Z,2.70
2019-01-12T11:20:18.194Z,2.67
2019-01-12T11:22:48.085Z,2.87
2019-01-12T11:25:17.343Z,2.83
2019-01-12T11:27:46.411Z,3.40
2019-01-12T11:30:17.223Z,2.57
2019-01-12T11:32:46.501Z,2.70
2019-01-12T11:35:15.565Z,3.40
2019-01-12T11:37:45.768Z,2.70
2019-01-12T11:40:19.394Z,2.90
2019-01-12T11:42:49.771Z,2.90
2019-01-12T11:45:18.997Z,2.57
2019-01-12T11:47:48.165Z,2.60
2019-01-12T11:50:17.344Z,2.90
2019-01-12T11:52:46.677Z,3.07
2019-01-12T11:55:17.110Z,3.00
2019-01-12T11:57:46.163Z,2.70
2019-01-12T12:00:21.068Z,2.67
2019-01-12T12:02:50.458Z,1.97
2019-01-12T12:05:19.543Z,2.93
2019-01-12T12:07:48.754Z,2.57
2019-01-12T12:10:19.070Z,2.40
2019-01-12T12:12:48.120Z,2.60
2019-01-12T12:15:17.839Z,2.30
2019-01-12T12:17:46.892Z,2.33
2019-01-12T12:20:21.680Z,2.10
2019-01-12T12:22:50.760Z,2.70
2019-01-12T12:25:19.948Z,2.23
2019-01-12T12:27:49.174Z,2.53
2019-01-12T12:30:20.522Z,1.93
2019-01-12T12:32:49.593Z,2.43
2019-01-12T12:35:18.783Z,2.03
2019-01-12T12:37:47.896Z,2.37
2019-01-12T12:40:18.028Z,2.00
2019-01-12T12:42:47.170Z,2.10
2019-01-12T12:45:18.428Z,2.20
2019-01-12T12:47:47.577Z,2.00
2019-01-12T12:50:17.218Z,2.57
2019-01-12T12:52:46.298Z,1.67
2019-01-12T12:55:16.101Z,2.30
2019-01-12T12:57:45.476Z,1.83
2019-01-12T13:00:19.242Z,2.10
2019-01-12T13:02:48.491Z,2.20
2019-01-12T13:05:17.567Z,2.80
2019-01-12T13:07:46.637Z,2.80
2019-01-12T13:10:21.030Z,2.73
2019-01-12T13:12:50.270Z,2.20
2019-01-12T13:15:19.411Z,2.40
2019-01-12T13:17:48.629Z,2.37
2019-01-12T13:20:18.731Z,2.47
2019-01-12T13:22:49.414Z,2.23
2019-01-12T13:25:18.786Z,1.63
2019-01-12T13:27:47.903Z,2.07
2019-01-12T13:30:22.065Z,2.57
2019-01-12T13:32:51.144Z,2.30
2019-01-12T13:35:20.416Z,2.40
2019-01-12T13:37:50.197Z,2.30
2019-01-12T13:40:21.758Z,2.10
2019-01-12T13:42:51.030Z,2.00
2019-01-12T13:45:21.647Z,2.17
2019-01-12T13:47:50.848Z,2.60
2019-01-12T13:50:22.489Z,2.30
2019-01-12T13:52:51.548Z,2.40
2019-01-12T13:55:20.700Z,1.77
2019-01-12T13:57:49.917Z,1.83
2019-01-12T14:00:39.568Z,2.33
2019-01-12T14:03:09.296Z,2.77
2019-01-12T14:05:39.753Z,2.17
2019-01-12T14:08:08.935Z,2.13
2019-01-12T14:10:39.131Z,2.07
2019-01-12T14:13:08.302Z,1.83
2019-01-12T14:15:37.457Z,1.90
2019-01-12T14:18:07.036Z,2.40
2019-01-12T14:20:40.398Z,2.13
2019-01-12T14:23:10.554Z,2.43
2019-01-12T14:25:39.620Z,2.23
2019-01-12T14:28:08.782Z,1.77
2019-01-12T14:30:38.133Z,2.37
2019-01-12T14:33:07.240Z,2.20
2019-01-12T14:35:36.304Z,2.70
2019-01-12T14:38:06.574Z,2.73
2019-01-12T14:40:35.838Z,2.33
2019-01-12T14:43:04.924Z,2.60
2019-01-12T14:45:35.886Z,2.17
2019-01-12T14:48:05.686Z,2.10
2019-01-12T14:50:34.726Z,2.13
2019-01-12T14:53:03.983Z,2.10
2019-01-12T14:55:33.741Z,2.50
2019-01-12T14:58:03.143Z,1.83
2019-01-12T15:00:32.556Z,2.40
2019-01-12T15:03:01.628Z,2.07
2019-01-12T15:05:36.044Z,2.13
2019-01-12T15:08:06.074Z,1.98
2019-01-12T15:10:35.541Z,2.37
2019-01-12T15:13:04.611Z,2.70
2019-01-12T15:15:33.679Z,2.30
2019-01-12T15:18:03.027Z,2.77
2019-01-12T15:20:32.285Z,2.67
2019-01-12T15:23:01.999Z,2.40
2019-01-12T15:25:31.417Z,2.30
2019-01-12T15:28:00.493Z,2.50
2019-01-12T15:30:31.274Z,2.47
2019-01-12T15:33:02.727Z,2.43
2019-01-12T15:35:33.353Z,2.57
2019-01-12T15:38:03.192Z,2.00
2019-01-12T15:40:34.354Z,2.67
2019-01-12T15:43:03.332Z,2.10
2019-01-12T15:45:32.477Z,1.83
2019-01-12T15:48:01.697Z,2.10
2019-01-12T15:50:30.777Z,1.97
2019-01-12T15:53:01.433Z,2.57
2019-01-12T15:55:31.028Z,2.00
2019-01-12T15:58:00.094Z,1.93
2019-01-12T16:00:30.785Z,3.07
2019-01-12T16:03:00.176Z,2.17
2019-01-12T16:05:30.215Z,2.03
2019-01-12T16:07:59.389Z,2.70
2019-01-12T16:10:28.601Z,2.40
2019-01-12T16:12:57.682Z,2.20
2019-01-12T16:15:27.777Z,2.43
2019-01-12T16:17:58.223Z,2.60
2019-01-12T16:20:36.418Z,2.50
2019-01-12T16:23:05.916Z,2.30
2019-01-12T16:25:35.078Z,2.27
2019-01-12T16:28:04.162Z,2.23
2019-01-12T16:30:33.522Z,2.40
2019-01-12T16:33:02.598Z,2.30
2019-01-12T16:35:31.652Z,3.00
2019-01-12T16:38:01.215Z,2.20
2019-01-12T16:40:30.309Z,2.60
2019-01-12T16:42:59.383Z,2.60
2019-01-12T16:45:28.713Z,2.37
2019-01-12T16:47:57.778Z,2.27
2019-01-12T16:50:26.867Z,2.50
2019-01-12T16:52:56.233Z,2.30
2019-01-12T16:55:26.509Z,2.17
2019-01-12T16:57:56.918Z,2.80
2019-01-12T17:00:28.661Z,2.37
2019-01-12T17:02:58.139Z,2.33
2019-01-12T17:05:27.219Z,2.20
2019-01-12T17:07:56.404Z,2.33
2019-01-12T17:10:25.704Z,2.53
2019-01-12T17:12:54.775Z,3.03
2019-01-12T17:15:24.495Z,1.90
2019-01-12T17:17:53.905Z,2.40
2019-01-12T17:20:27.707Z,2.23
2019-01-12T17:23:06.631Z,2.40
2019-01-12T17:25:36.827Z,2.27
2019-01-12T17:28:06.205Z,2.43
2019-01-12T17:30:35.607Z,2.40
2019-01-12T17:33:05.006Z,2.30
2019-01-12T17:35:34.085Z,2.20
2019-01-12T17:38:03.871Z,1.87
2019-01-12T17:40:32.957Z,2.27
2019-01-12T17:43:02.059Z,2.50
2019-01-12T17:45:31.193Z,2.17
2019-01-12T17:48:00.271Z,2.53
2019-01-12T17:50:29.451Z,2.27
2019-01-12T17:52:59.069Z,2.23
2019-01-12T17:55:29.205Z,2.83
2019-01-12T17:57:58.303Z,2.70
2019-01-12T18:00:47.973Z,2.83
2019-01-12T18:03:17.294Z,2.87
2019-01-12T18:05:46.631Z,3.43
2019-01-12T18:08:15.967Z,2.50
2019-01-12T18:10:45.148Z,2.10
2019-01-12T18:13:14.312Z,2.43
2019-01-12T18:15:43.682Z,2.47
2019-01-12T18:18:12.818Z,2.93
2019-01-12T18:20:41.898Z,2.90
2019-01-12T18:23:12.413Z,2.50
2019-01-12T18:25:41.542Z,2.40
2019-01-12T18:28:10.618Z,2.43
2019-01-12T18:30:39.866Z,2.43
2019-01-12T18:33:09.214Z,2.60
2019-01-12T18:35:39.596Z,2.43
2019-01-12T18:38:08.986Z,2.53
2019-01-12T18:40:38.068Z,2.30
2019-01-12T18:43:07.170Z,2.40
2019-01-12T18:45:36.488Z,1.80
2019-01-12T18:48:05.856Z,2.37
2019-01-12T18:50:34.990Z,3.10
2019-01-12T18:53:04.596Z,2.27
2019-01-12T18:55:33.664Z,2.20
2019-01-12T18:58:02.806Z,2.60
2019-01-12T19:00:32.087Z,1.73
2019-01-12T19:03:01.231Z,2.23
2019-01-12T19:05:30.518Z,2.10
2019-01-12T19:07:59.603Z,2.50
2019-01-12T19:10:28.736Z,2.10
2019-01-12T19:12:57.858Z,1.90
2019-01-12T19:15:29.136Z,2.30
2019-01-12T19:17:58.313Z,2.93
2019-01-12T19:20:27.534Z,1.87
2019-01-12T19:22:57.052Z,2.10
2019-01-12T19:25:26.126Z,2.40
2019-01-12T19:27:56.154Z,2.20
2019-01-12T19:30:25.629Z,1.83
2019-01-12T19:32:54.763Z,2.27
2019-01-12T19:35:24.015Z,2.23
2019-01-12T19:37:53.429Z,2.03
2019-01-12T19:40:24.231Z,2.37
2019-01-12T19:42:53.373Z,2.20
2019-01-12T19:45:22.657Z,2.10
2019-01-12T19:47:52.359Z,2.10
2019-01-12T19:50:26.737Z,2.20
2019-01-12T19:52:56.445Z,1.57
2019-01-12T19:55:25.515Z,2.30
2019-01-12T19:57:54.793Z,1.93
2019-01-12T20:00:34.299Z,1.80
2019-01-12T20:03:03.428Z,2.33
2019-01-12T20:05:32.504Z,2.30
2019-01-12T20:08:01.647Z,2.23
2019-01-12T20:10:31.020Z,2.13
2019-01-12T20:13:00.384Z,2.13
2019-01-12T20:15:29.536Z,2.23
2019-01-12T20:18:00.464Z,2.47
2019-01-12T20:20:29.566Z,2.30
2019-01-12T20:22:58.675Z,2.40
2019-01-12T20:25:29.991Z,2.30
2019-01-12T20:28:04.833Z,2.30
2019-01-12T20:31:13.280Z,2.80
2019-01-12T20:34:10.208Z,2.50
2019-01-12T20:37:39.206Z,2.67
2019-01-12T20:40:48.876Z,2.60
2019-01-12T20:43:42.451Z,2.33
2019-01-12T20:46:32.460Z,2.50
2019-01-12T20:49:25.873Z,2.90
2019-01-12T20:52:24.934Z,2.57
2019-01-12T20:55:33.447Z,2.90
2019-01-12T20:58:35.225Z,2.37
2019-01-12T21:01:32.528Z,3.07
2019-01-12T21:04:55.158Z,2.83
2019-01-12T21:07:55.145Z,2.57
2019-01-12T21:10:56.963Z,3.07
2019-01-12T21:13:53.340Z,2.60
2019-01-12T21:16:30.742Z,2.90
2019-01-12T21:18:59.915Z,2.50
2019-01-12T21:21:29.063Z,2.33
2019-01-12T21:23:58.242Z,2.70
2019-01-12T21:26:27.339Z,2.17
2019-01-12T21:28:56.485Z,2.53
2019-01-12T21:31:25.719Z,2.93
2019-01-12T21:33:54.781Z,2.97
2019-01-12T21:36:23.882Z,2.60
2019-01-12T21:38:53.323Z,2.67
2019-01-12T21:41:22.374Z,2.63
2019-01-12T21:43:51.477Z,2.40
2019-01-12T21:46:23.393Z,2.73
2019-01-12T21:48:52.526Z,2.90
2019-01-12T21:51:21.589Z,3.00
2019-01-12T21:53:51.065Z,3.60
2019-01-12T21:56:20.638Z,3.23
2019-01-12T21:58:49.755Z,2.53
2019-01-12T22:01:19.688Z,2.80
2019-01-12T22:03:48.767Z,2.60
2019-01-12T22:06:18.677Z,3.17
2019-01-12T22:08:48.108Z,3.07
2019-01-12T22:11:17.167Z,3.63
2019-01-12T22:13:46.227Z,2.83
2019-01-12T22:16:15.498Z,3.07
2019-01-12T22:18:44.570Z,3.40
2019-01-12T22:21:13.624Z,3.53
2019-01-12T22:23:42.977Z,2.97
2019-01-12T22:26:12.058Z,3.55
2019-01-12T22:28:41.122Z,3.33
2019-01-12T22:31:10.578Z,3.90
2019-01-12T22:33:39.701Z,3.53
2019-01-12T22:36:08.791Z,4.00
2019-01-12T22:38:38.054Z,4.47
2019-01-12T22:41:07.125Z,4.13
2019-01-12T22:43:36.294Z,4.73
2019-01-12T22:46:05.604Z,4.30
2019-01-12T22:48:34.690Z,5.27
2019-01-12T22:51:03.774Z,5.25
2019-01-12T22:53:34.276Z,6.10
2019-01-12T22:56:03.360Z,5.07
2019-01-12T22:58:32.555Z,5.35
2019-01-12T23:01:13.450Z,5.63
2019-01-12T23:03:46.692Z,6.47
2019-01-12T23:06:15.934Z,5.90
2019-01-12T23:08:45.680Z,5.43
2019-01-12T23:11:14.746Z,5.63
2019-01-12T23:13:44.060Z,4.83
2019-01-12T23:16:13.143Z,5.20
2019-01-12T23:18:42.209Z,5.67
2019-01-12T23:21:12.194Z,4.63
2019-01-12T23:23:41.251Z,4.60
2019-01-12T23:26:10.337Z,5.20
2019-01-12T23:28:39.630Z,5.27
2019-01-12T23:31:08.811Z,5.27
2019-01-12T23:33:37.896Z,5.37
2019-01-12T23:36:07.136Z,5.70
2019-01-12T23:38:36.197Z,5.40
2019-01-12T23:41:05.350Z,5.87
2019-01-12T23:43:34.719Z,5.70
2019-01-12T23:46:04.260Z,5.10
2019-01-12T23:48:33.770Z,5.60
2019-01-12T23:51:03.128Z,5.20
2019-01-12T23:53:32.207Z,5.93
2019-01-12T23:56:01.282Z,5.77
2019-01-12T23:58:30.441Z,6.13
